sensor_id;sensor_type;location;lat;lon;timestamp;temperature;humidity
43043;DHT22;28667;50.758;6.096;2024-02-16T00:00:27;13.10;99.90
43043;DHT22;28667;50.758;6.096;2024-02-16T00:02:52;13.10;99.90
43043;DHT22;28667;50.758;6.096;2024-02-16T00:05:18;13.20;99.90
43043;DHT22;28667;50.758;6.096;2024-02-16T00:07:44;13.20;99.90
43043;DHT22;28667;50.758;6.096;2024-02-16T00:10:10;13.20;99.90
43043;DHT22;28667;50.758;6.096;2024-02-16T00:12:38;13.20;99.90
43043;DHT22;28667;50.758;6.096;2024-02-16T00:15:06;13.20;99.90
43043;DHT22;28667;50.758;6.096;2024-02-16T00:17:32;13.20;99.90
43043;DHT22;28667;50.758;6.096;2024-02-16T00:19:59;13.20;99.90
43043;DHT22;28667;50.758;6.096;2024-02-16T00:22:25;13.20;99.90
43043;DHT22;28667;50.758;6.096;2024-02-16T00:24:51;13.20;99.90
43043;DHT22;28667;50.758;6.096;2024-02-16T00:27:17;13.20;99.90
43043;DHT22;28667;50.758;6.096;2024-02-16T00:29:43;13.30;99.90
43043;DHT22;28667;50.758;6.096;2024-02-16T00:32:09;13.40;99.90
43043;DHT22;28667;50.758;6.096;2024-02-16T00:34:36;13.40;99.90
43043;DHT22;28667;50.758;6.096;2024-02-16T00:37:02;13.40;99.90
43043;DHT22;28667;50.758;6.096;2024-02-16T00:39:38;13.50;99.90
43043;DHT22;28667;50.758;6.096;2024-02-16T00:42:06;13.50;99.90
43043;DHT22;28667;50.758;6.096;2024-02-16T00:44:32;13.50;99.90
43043;DHT22;28667;50.758;6.096;2024-02-16T00:46:58;13.50;99.90
43043;DHT22;28667;50.758;6.096;2024-02-16T00:49:24;13.60;99.90
43043;DHT22;28667;50.758;6.096;2024-02-16T00:51:49;13.60;99.90
43043;DHT22;28667;50.758;6.096;2024-02-16T00:54:17;13.60;99.90
43043;DHT22;28667;50.758;6.096;2024-02-16T00:56:42;13.60;99.90
43043;DHT22;28667;50.758;6.096;2024-02-16T00:59:08;13.70;99.90
43043;DHT22;28667;50.758;6.096;2024-02-16T01:01:35;13.70;99.90
43043;DHT22;28667;50.758;6.096;2024-02-16T01:04:02;13.80;99.90
43043;DHT22;28667;50.758;6.096;2024-02-16T01:06:28;13.80;99.90
43043;DHT22;28667;50.758;6.096;2024-02-16T01:08:53;13.80;99.90
43043;DHT22;28667;50.758;6.096;2024-02-16T01:11:19;13.90;99.90
43043;DHT22;28667;50.758;6.096;2024-02-16T01:13:48;13.80;99.90
43043;DHT22;28667;50.758;6.096;2024-02-16T01:16:14;13.90;99.90
43043;DHT22;28667;50.758;6.096;2024-02-16T01:18:40;13.90;99.90
43043;DHT22;28667;50.758;6.096;2024-02-16T01:21:06;13.90;99.90
43043;DHT22;28667;50.758;6.096;2024-02-16T01:23:32;14.00;99.90
43043;DHT22;28667;50.758;6.096;2024-02-16T01:25:58;14.00;99.90
43043;DHT22;28667;50.758;6.096;2024-02-16T01:28:23;14.00;99.90
43043;DHT22;28667;50.758;6.096;2024-02-16T01:30:50;14.00;99.90
43043;DHT22;28667;50.758;6.096;2024-02-16T01:33:16;14.00;99.90
43043;DHT22;28667;50.758;6.096;2024-02-16T01:35:41;14.00;99.90
43043;DHT22;28667;50.758;6.096;2024-02-16T01:38:07;14.00;99.90
43043;DHT22;28667;50.758;6.096;2024-02-16T01:40:33;14.00;99.90
43043;DHT22;28667;50.758;6.096;2024-02-16T01:42:59;14.00;99.90
43043;DHT22;28667;50.758;6.096;2024-02-16T01:45:24;14.00;99.90
43043;DHT22;28667;50.758;6.096;2024-02-16T01:47:51;14.00;99.90
43043;DHT22;28667;50.758;6.096;2024-02-16T01:50:18;14.00;99.90
43043;DHT22;28667;50.758;6.096;2024-02-16T01:52:45;14.00;99.90
43043;DHT22;28667;50.758;6.096;2024-02-16T01:55:12;14.00;99.90
43043;DHT22;28667;50.758;6.096;2024-02-16T01:57:45;14.10;99.90
43043;DHT22;28667;50.758;6.096;2024-02-16T02:00:11;14.20;99.90
43043;DHT22;28667;50.758;6.096;2024-02-16T02:02:40;14.20;99.90
43043;DHT22;28667;50.758;6.096;2024-02-16T02:05:06;14.20;99.90
43043;DHT22;28667;50.758;6.096;2024-02-16T02:07:32;14.20;99.90
43043;DHT22;28667;50.758;6.096;2024-02-16T02:09:58;14.20;99.90
43043;DHT22;28667;50.758;6.096;2024-02-16T02:12:24;14.20;99.90
43043;DHT22;28667;50.758;6.096;2024-02-16T02:14:50;14.10;99.90
43043;DHT22;28667;50.758;6.096;2024-02-16T02:17:17;14.10;99.90
43043;DHT22;28667;50.758;6.096;2024-02-16T02:19:43;14.20;99.90
43043;DHT22;28667;50.758;6.096;2024-02-16T02:22:27;14.20;99.90
43043;DHT22;28667;50.758;6.096;2024-02-16T02:24:53;14.10;99.90
43043;DHT22;28667;50.758;6.096;2024-02-16T02:27:21;14.20;99.90
43043;DHT22;28667;50.758;6.096;2024-02-16T02:29:47;14.10;99.90
43043;DHT22;28667;50.758;6.096;2024-02-16T02:32:13;14.20;99.90
43043;DHT22;28667;50.758;6.096;2024-02-16T02:34:39;14.20;99.90
43043;DHT22;28667;50.758;6.096;2024-02-16T02:37:05;14.20;99.90
43043;DHT22;28667;50.758;6.096;2024-02-16T02:39:32;14.20;99.90
43043;DHT22;28667;50.758;6.096;2024-02-16T02:41:58;14.20;99.90
43043;DHT22;28667;50.758;6.096;2024-02-16T02:44:24;14.20;99.90
43043;DHT22;28667;50.758;6.096;2024-02-16T02:46:50;14.20;99.90
43043;DHT22;28667;50.758;6.096;2024-02-16T02:49:16;14.20;99.90
43043;DHT22;28667;50.758;6.096;2024-02-16T02:51:42;14.30;99.90
43043;DHT22;28667;50.758;6.096;2024-02-16T02:54:07;14.30;99.90
43043;DHT22;28667;50.758;6.096;2024-02-16T02:56:33;14.20;99.90
43043;DHT22;28667;50.758;6.096;2024-02-16T02:58:59;14.20;99.90
43043;DHT22;28667;50.758;6.096;2024-02-16T03:01:24;14.20;99.90
43043;DHT22;28667;50.758;6.096;2024-02-16T03:03:50;14.10;99.90
43043;DHT22;28667;50.758;6.096;2024-02-16T03:06:20;14.20;99.90
43043;DHT22;28667;50.758;6.096;2024-02-16T03:08:46;14.10;99.90
43043;DHT22;28667;50.758;6.096;2024-02-16T03:11:12;14.10;99.90
43043;DHT22;28667;50.758;6.096;2024-02-16T03:13:37;14.10;99.90
43043;DHT22;28667;50.758;6.096;2024-02-16T03:16:03;14.00;99.90
43043;DHT22;28667;50.758;6.096;2024-02-16T03:18:33;14.00;99.90
43043;DHT22;28667;50.758;6.096;2024-02-16T03:20:59;14.00;99.90
43043;DHT22;28667;50.758;6.096;2024-02-16T03:23:25;14.00;99.90
43043;DHT22;28667;50.758;6.096;2024-02-16T03:25:51;14.00;99.90
43043;DHT22;28667;50.758;6.096;2024-02-16T03:28:17;14.00;99.90
43043;DHT22;28667;50.758;6.096;2024-02-16T03:30:44;13.90;99.90
43043;DHT22;28667;50.758;6.096;2024-02-16T03:33:10;13.90;99.90
43043;DHT22;28667;50.758;6.096;2024-02-16T03:35:36;13.90;99.90
43043;DHT22;28667;50.758;6.096;2024-02-16T03:38:03;13.90;99.90
43043;DHT22;28667;50.758;6.096;2024-02-16T03:40:29;13.90;99.90
43043;DHT22;28667;50.758;6.096;2024-02-16T03:42:55;13.90;99.90
43043;DHT22;28667;50.758;6.096;2024-02-16T03:45:21;14.00;99.90
43043;DHT22;28667;50.758;6.096;2024-02-16T03:47:48;14.00;99.90
43043;DHT22;28667;50.758;6.096;2024-02-16T03:50:14;14.00;99.90
43043;DHT22;28667;50.758;6.096;2024-02-16T03:52:40;14.00;99.90
43043;DHT22;28667;50.758;6.096;2024-02-16T03:55:07;14.00;99.90
43043;DHT22;28667;50.758;6.096;2024-02-16T03:57:33;13.90;99.90
43043;DHT22;28667;50.758;6.096;2024-02-16T03:59:58;13.90;99.90
43043;DHT22;28667;50.758;6.096;2024-02-16T04:02:24;13.80;99.90
43043;DHT22;28667;50.758;6.096;2024-02-16T04:04:51;13.80;99.90
43043;DHT22;28667;50.758;6.096;2024-02-16T04:07:17;13.80;99.90
43043;DHT22;28667;50.758;6.096;2024-02-16T04:09:43;13.80;99.90
43043;DHT22;28667;50.758;6.096;2024-02-16T04:12:08;13.80;99.90
43043;DHT22;28667;50.758;6.096;2024-02-16T04:14:35;13.80;99.90
43043;DHT22;28667;50.758;6.096;2024-02-16T04:17:01;13.80;99.90
43043;DHT22;28667;50.758;6.096;2024-02-16T04:19:27;13.80;99.90
43043;DHT22;28667;50.758;6.096;2024-02-16T04:21:53;13.80;99.90
43043;DHT22;28667;50.758;6.096;2024-02-16T04:24:19;13.70;99.90
43043;DHT22;28667;50.758;6.096;2024-02-16T04:26:45;13.70;99.90
43043;DHT22;28667;50.758;6.096;2024-02-16T04:29:11;13.70;99.90
43043;DHT22;28667;50.758;6.096;2024-02-16T04:31:40;13.70;99.90
43043;DHT22;28667;50.758;6.096;2024-02-16T04:34:08;13.60;99.90
43043;DHT22;28667;50.758;6.096;2024-02-16T04:36:34;13.60;99.90
43043;DHT22;28667;50.758;6.096;2024-02-16T04:39:00;13.60;99.90
43043;DHT22;28667;50.758;6.096;2024-02-16T04:41:26;13.70;99.90
43043;DHT22;28667;50.758;6.096;2024-02-16T04:43:51;13.70;99.90
43043;DHT22;28667;50.758;6.096;2024-02-16T04:46:19;13.80;99.90
43043;DHT22;28667;50.758;6.096;2024-02-16T04:48:45;13.90;99.90
43043;DHT22;28667;50.758;6.096;2024-02-16T04:51:11;13.80;99.90
43043;DHT22;28667;50.758;6.096;2024-02-16T04:53:37;13.80;99.90
43043;DHT22;28667;50.758;6.096;2024-02-16T04:56:03;13.80;99.90
43043;DHT22;28667;50.758;6.096;2024-02-16T04:58:30;13.80;99.90
43043;DHT22;28667;50.758;6.096;2024-02-16T05:00:56;13.80;99.90
43043;DHT22;28667;50.758;6.096;2024-02-16T05:03:22;13.90;99.90
43043;DHT22;28667;50.758;6.096;2024-02-16T05:05:48;13.90;99.90
43043;DHT22;28667;50.758;6.096;2024-02-16T05:08:14;14.00;99.90
43043;DHT22;28667;50.758;6.096;2024-02-16T05:10:40;13.90;99.90
43043;DHT22;28667;50.758;6.096;2024-02-16T05:13:06;13.80;99.90
43043;DHT22;28667;50.758;6.096;2024-02-16T05:15:31;13.80;99.90
43043;DHT22;28667;50.758;6.096;2024-02-16T05:17:58;13.80;99.90
43043;DHT22;28667;50.758;6.096;2024-02-16T05:20:24;13.90;99.90
43043;DHT22;28667;50.758;6.096;2024-02-16T05:22:50;13.90;99.90
43043;DHT22;28667;50.758;6.096;2024-02-16T05:25:17;13.80;99.90
43043;DHT22;28667;50.758;6.096;2024-02-16T05:27:43;13.80;99.90
43043;DHT22;28667;50.758;6.096;2024-02-16T05:30:10;13.80;99.90
43043;DHT22;28667;50.758;6.096;2024-02-16T05:32:38;13.90;99.90
43043;DHT22;28667;50.758;6.096;2024-02-16T05:35:05;13.90;99.90
43043;DHT22;28667;50.758;6.096;2024-02-16T05:37:47;13.80;99.90
43043;DHT22;28667;50.758;6.096;2024-02-16T05:40:22;13.90;99.90
43043;DHT22;28667;50.758;6.096;2024-02-16T05:42:51;13.90;99.90
43043;DHT22;28667;50.758;6.096;2024-02-16T05:45:18;13.80;99.90
43043;DHT22;28667;50.758;6.096;2024-02-16T05:47:45;13.80;99.90
43043;DHT22;28667;50.758;6.096;2024-02-16T05:50:11;13.80;99.90
43043;DHT22;28667;50.758;6.096;2024-02-16T05:52:38;13.70;99.90
43043;DHT22;28667;50.758;6.096;2024-02-16T05:55:05;13.70;99.90
43043;DHT22;28667;50.758;6.096;2024-02-16T05:57:31;13.70;99.90
43043;DHT22;28667;50.758;6.096;2024-02-16T05:59:57;13.70;99.90
43043;DHT22;28667;50.758;6.096;2024-02-16T06:02:23;13.60;99.90
43043;DHT22;28667;50.758;6.096;2024-02-16T06:04:51;13.60;99.90
43043;DHT22;28667;50.758;6.096;2024-02-16T06:07:17;13.60;99.90
43043;DHT22;28667;50.758;6.096;2024-02-16T06:09:43;13.60;99.90
43043;DHT22;28667;50.758;6.096;2024-02-16T06:12:09;13.60;99.90
43043;DHT22;28667;50.758;6.096;2024-02-16T06:14:35;13.50;99.90
43043;DHT22;28667;50.758;6.096;2024-02-16T06:17:02;13.50;99.90
43043;DHT22;28667;50.758;6.096;2024-02-16T06:19:28;13.50;99.90
43043;DHT22;28667;50.758;6.096;2024-02-16T06:21:55;13.40;99.90
43043;DHT22;28667;50.758;6.096;2024-02-16T06:24:24;13.40;99.90
43043;DHT22;28667;50.758;6.096;2024-02-16T06:26:50;13.40;99.90
43043;DHT22;28667;50.758;6.096;2024-02-16T06:29:17;13.40;99.90
43043;DHT22;28667;50.758;6.096;2024-02-16T06:31:48;13.40;99.90
43043;DHT22;28667;50.758;6.096;2024-02-16T06:34:14;13.40;99.90
43043;DHT22;28667;50.758;6.096;2024-02-16T06:36:41;13.40;99.90
43043;DHT22;28667;50.758;6.096;2024-02-16T06:39:06;13.50;99.90
43043;DHT22;28667;50.758;6.096;2024-02-16T06:41:32;13.60;99.90
43043;DHT22;28667;50.758;6.096;2024-02-16T06:43:58;13.50;99.90
43043;DHT22;28667;50.758;6.096;2024-02-16T06:46:24;13.50;99.90
43043;DHT22;28667;50.758;6.096;2024-02-16T06:48:53;13.50;99.90
43043;DHT22;28667;50.758;6.096;2024-02-16T06:51:23;13.50;99.90
43043;DHT22;28667;50.758;6.096;2024-02-16T06:53:49;13.50;99.90
43043;DHT22;28667;50.758;6.096;2024-02-16T06:56:15;13.50;99.90
43043;DHT22;28667;50.758;6.096;2024-02-16T06:58:40;13.40;99.90
43043;DHT22;28667;50.758;6.096;2024-02-16T07:01:07;13.40;99.90
43043;DHT22;28667;50.758;6.096;2024-02-16T07:03:34;13.30;99.90
43043;DHT22;28667;50.758;6.096;2024-02-16T07:06:03;13.30;99.90
43043;DHT22;28667;50.758;6.096;2024-02-16T07:08:29;13.30;99.90
43043;DHT22;28667;50.758;6.096;2024-02-16T07:10:55;13.30;99.90
43043;DHT22;28667;50.758;6.096;2024-02-16T07:13:22;13.30;99.90
43043;DHT22;28667;50.758;6.096;2024-02-16T07:15:48;13.40;99.90
43043;DHT22;28667;50.758;6.096;2024-02-16T07:18:15;13.40;99.90
43043;DHT22;28667;50.758;6.096;2024-02-16T07:20:41;13.30;99.90
43043;DHT22;28667;50.758;6.096;2024-02-16T07:23:07;13.30;99.90
43043;DHT22;28667;50.758;6.096;2024-02-16T07:25:35;13.30;99.90
43043;DHT22;28667;50.758;6.096;2024-02-16T07:28:01;13.30;99.90
43043;DHT22;28667;50.758;6.096;2024-02-16T07:30:26;13.30;99.90
43043;DHT22;28667;50.758;6.096;2024-02-16T07:32:52;13.20;99.90
43043;DHT22;28667;50.758;6.096;2024-02-16T07:35:18;13.20;99.90
43043;DHT22;28667;50.758;6.096;2024-02-16T07:37:44;13.20;99.90
43043;DHT22;28667;50.758;6.096;2024-02-16T07:40:10;13.20;99.90
43043;DHT22;28667;50.758;6.096;2024-02-16T07:42:40;13.20;99.90
43043;DHT22;28667;50.758;6.096;2024-02-16T07:45:08;13.20;99.90
43043;DHT22;28667;50.758;6.096;2024-02-16T07:47:35;13.20;99.90
43043;DHT22;28667;50.758;6.096;2024-02-16T07:50:01;13.20;99.90
43043;DHT22;28667;50.758;6.096;2024-02-16T07:52:27;13.20;99.90
43043;DHT22;28667;50.758;6.096;2024-02-16T07:54:52;13.20;99.90
43043;DHT22;28667;50.758;6.096;2024-02-16T07:57:18;13.20;99.90
43043;DHT22;28667;50.758;6.096;2024-02-16T07:59:44;13.30;99.90
43043;DHT22;28667;50.758;6.096;2024-02-16T08:02:10;13.30;99.90
43043;DHT22;28667;50.758;6.096;2024-02-16T08:04:41;13.30;99.90
43043;DHT22;28667;50.758;6.096;2024-02-16T08:07:07;13.40;99.90
43043;DHT22;28667;50.758;6.096;2024-02-16T08:09:33;13.40;99.90
43043;DHT22;28667;50.758;6.096;2024-02-16T08:11:59;13.40;99.90
43043;DHT22;28667;50.758;6.096;2024-02-16T08:14:25;13.40;99.90
43043;DHT22;28667;50.758;6.096;2024-02-16T08:16:52;13.50;99.90
43043;DHT22;28667;50.758;6.096;2024-02-16T08:19:17;13.50;99.90
43043;DHT22;28667;50.758;6.096;2024-02-16T08:21:43;13.60;99.90
43043;DHT22;28667;50.758;6.096;2024-02-16T08:24:09;13.60;99.90
43043;DHT22;28667;50.758;6.096;2024-02-16T08:26:35;13.60;99.90
43043;DHT22;28667;50.758;6.096;2024-02-16T08:29:01;13.60;99.90
43043;DHT22;28667;50.758;6.096;2024-02-16T08:31:26;13.60;99.90
43043;DHT22;28667;50.758;6.096;2024-02-16T08:33:52;13.60;99.90
43043;DHT22;28667;50.758;6.096;2024-02-16T08:36:18;13.60;99.90
43043;DHT22;28667;50.758;6.096;2024-02-16T08:38:44;13.70;99.90
43043;DHT22;28667;50.758;6.096;2024-02-16T08:41:10;13.70;99.90
43043;DHT22;28667;50.758;6.096;2024-02-16T08:43:35;13.70;99.90
43043;DHT22;28667;50.758;6.096;2024-02-16T08:46:01;13.80;99.90
43043;DHT22;28667;50.758;6.096;2024-02-16T08:48:27;13.80;99.90
43043;DHT22;28667;50.758;6.096;2024-02-16T08:50:53;13.80;99.90
43043;DHT22;28667;50.758;6.096;2024-02-16T08:53:18;13.90;99.90
43043;DHT22;28667;50.758;6.096;2024-02-16T08:55:44;14.00;99.90
43043;DHT22;28667;50.758;6.096;2024-02-16T08:58:16;14.00;99.90
43043;DHT22;28667;50.758;6.096;2024-02-16T09:00:43;14.00;99.90
43043;DHT22;28667;50.758;6.096;2024-02-16T09:03:09;14.00;99.90
43043;DHT22;28667;50.758;6.096;2024-02-16T09:05:35;14.00;99.90
43043;DHT22;28667;50.758;6.096;2024-02-16T09:08:01;14.00;99.90
43043;DHT22;28667;50.758;6.096;2024-02-16T09:10:27;14.00;99.90
43043;DHT22;28667;50.758;6.096;2024-02-16T09:12:53;14.00;99.90
43043;DHT22;28667;50.758;6.096;2024-02-16T09:15:19;14.00;99.90
43043;DHT22;28667;50.758;6.096;2024-02-16T09:17:44;14.00;99.90
43043;DHT22;28667;50.758;6.096;2024-02-16T09:20:11;14.00;99.90
43043;DHT22;28667;50.758;6.096;2024-02-16T09:22:38;14.00;99.90
43043;DHT22;28667;50.758;6.096;2024-02-16T09:25:04;14.10;99.90
43043;DHT22;28667;50.758;6.096;2024-02-16T09:27:30;14.10;99.90
43043;DHT22;28667;50.758;6.096;2024-02-16T09:29:57;14.20;99.90
43043;DHT22;28667;50.758;6.096;2024-02-16T09:32:22;14.20;99.90
43043;DHT22;28667;50.758;6.096;2024-02-16T09:34:48;14.30;99.90
43043;DHT22;28667;50.758;6.096;2024-02-16T09:37:14;14.30;99.90
43043;DHT22;28667;50.758;6.096;2024-02-16T09:39:41;14.40;99.90
43043;DHT22;28667;50.758;6.096;2024-02-16T09:42:06;14.40;99.90
43043;DHT22;28667;50.758;6.096;2024-02-16T09:44:35;14.40;99.90
43043;DHT22;28667;50.758;6.096;2024-02-16T09:47:01;14.40;99.90
43043;DHT22;28667;50.758;6.096;2024-02-16T09:49:27;14.40;99.90
43043;DHT22;28667;50.758;6.096;2024-02-16T09:51:55;14.40;99.90
43043;DHT22;28667;50.758;6.096;2024-02-16T09:54:25;14.50;99.90
43043;DHT22;28667;50.758;6.096;2024-02-16T09:56:50;14.50;99.90
43043;DHT22;28667;50.758;6.096;2024-02-16T09:59:16;14.40;99.90
43043;DHT22;28667;50.758;6.096;2024-02-16T10:01:42;14.40;99.90
43043;DHT22;28667;50.758;6.096;2024-02-16T10:04:09;14.50;99.90
43043;DHT22;28667;50.758;6.096;2024-02-16T10:06:47;14.50;99.90
43043;DHT22;28667;50.758;6.096;2024-02-16T10:09:28;14.50;99.90
43043;DHT22;28667;50.758;6.096;2024-02-16T10:11:58;14.50;99.90
43043;DHT22;28667;50.758;6.096;2024-02-16T10:14:24;14.60;99.90
43043;DHT22;28667;50.758;6.096;2024-02-16T10:17:05;14.70;99.90
43043;DHT22;28667;50.758;6.096;2024-02-16T10:19:32;14.70;99.90
43043;DHT22;28667;50.758;6.096;2024-02-16T10:22:11;14.70;99.90
43043;DHT22;28667;50.758;6.096;2024-02-16T10:24:38;14.80;99.90
43043;DHT22;28667;50.758;6.096;2024-02-16T10:27:17;14.90;99.90
43043;DHT22;28667;50.758;6.096;2024-02-16T10:29:47;14.80;99.90
43043;DHT22;28667;50.758;6.096;2024-02-16T10:32:17;14.90;99.90
43043;DHT22;28667;50.758;6.096;2024-02-16T10:34:45;14.80;99.90
43043;DHT22;28667;50.758;6.096;2024-02-16T10:37:12;14.90;99.90
43043;DHT22;28667;50.758;6.096;2024-02-16T10:39:40;14.80;99.90
43043;DHT22;28667;50.758;6.096;2024-02-16T10:42:07;14.80;99.90
43043;DHT22;28667;50.758;6.096;2024-02-16T10:44:35;14.80;99.90
43043;DHT22;28667;50.758;6.096;2024-02-16T10:47:01;14.90;99.90
43043;DHT22;28667;50.758;6.096;2024-02-16T10:49:27;14.80;99.90
43043;DHT22;28667;50.758;6.096;2024-02-16T10:51:55;14.80;99.90
43043;DHT22;28667;50.758;6.096;2024-02-16T10:54:27;14.80;99.90
43043;DHT22;28667;50.758;6.096;2024-02-16T10:56:54;14.70;99.90
43043;DHT22;28667;50.758;6.096;2024-02-16T10:59:21;14.70;99.90
43043;DHT22;28667;50.758;6.096;2024-02-16T11:01:46;14.70;99.90
43043;DHT22;28667;50.758;6.096;2024-02-16T11:04:17;14.70;99.90
43043;DHT22;28667;50.758;6.096;2024-02-16T11:09:22;14.70;99.90
43043;DHT22;28667;50.758;6.096;2024-02-16T11:11:58;14.60;99.90
43043;DHT22;28667;50.758;6.096;2024-02-16T11:14:24;14.50;99.90
43043;DHT22;28667;50.758;6.096;2024-02-16T11:16:55;14.50;99.90
43043;DHT22;28667;50.758;6.096;2024-02-16T11:19:22;14.50;99.90
43043;DHT22;28667;50.758;6.096;2024-02-16T11:21:58;14.40;99.90
43043;DHT22;28667;50.758;6.096;2024-02-16T11:24:31;14.40;99.90
43043;DHT22;28667;50.758;6.096;2024-02-16T11:26:57;14.40;99.90
43043;DHT22;28667;50.758;6.096;2024-02-16T11:29:25;14.40;99.90
43043;DHT22;28667;50.758;6.096;2024-02-16T11:31:50;14.30;99.90
43043;DHT22;28667;50.758;6.096;2024-02-16T11:34:23;14.30;99.90
43043;DHT22;28667;50.758;6.096;2024-02-16T11:36:51;14.30;99.90
43043;DHT22;28667;50.758;6.096;2024-02-16T11:39:17;14.30;99.90
43043;DHT22;28667;50.758;6.096;2024-02-16T11:41:44;14.20;99.90
43043;DHT22;28667;50.758;6.096;2024-02-16T11:44:10;14.20;99.90
43043;DHT22;28667;50.758;6.096;2024-02-16T11:46:38;14.10;99.90
43043;DHT22;28667;50.758;6.096;2024-02-16T11:49:07;14.20;99.90
43043;DHT22;28667;50.758;6.096;2024-02-16T11:51:33;14.10;99.90
43043;DHT22;28667;50.758;6.096;2024-02-16T11:53:59;14.10;99.90
43043;DHT22;28667;50.758;6.096;2024-02-16T11:56:25;14.10;99.90
43043;DHT22;28667;50.758;6.096;2024-02-16T11:58:54;14.10;99.90
43043;DHT22;28667;50.758;6.096;2024-02-16T12:01:20;14.00;99.90
43043;DHT22;28667;50.758;6.096;2024-02-16T12:03:46;14.00;99.90
43043;DHT22;28667;50.758;6.096;2024-02-16T12:06:20;14.00;99.90
43043;DHT22;28667;50.758;6.096;2024-02-16T12:08:47;14.00;99.90
43043;DHT22;28667;50.758;6.096;2024-02-16T12:11:12;14.00;99.90
43043;DHT22;28667;50.758;6.096;2024-02-16T12:13:40;13.90;99.90
43043;DHT22;28667;50.758;6.096;2024-02-16T12:16:06;13.90;99.90
43043;DHT22;28667;50.758;6.096;2024-02-16T12:18:32;13.90;99.90
43043;DHT22;28667;50.758;6.096;2024-02-16T12:23:33;13.90;99.90
43043;DHT22;28667;50.758;6.096;2024-02-16T12:25:59;13.80;99.90
43043;DHT22;28667;50.758;6.096;2024-02-16T12:28:27;13.80;99.90
43043;DHT22;28667;50.758;6.096;2024-02-16T12:30:56;13.80;99.90
43043;DHT22;28667;50.758;6.096;2024-02-16T12:33:23;13.70;99.90
43043;DHT22;28667;50.758;6.096;2024-02-16T12:35:48;13.70;99.90
43043;DHT22;28667;50.758;6.096;2024-02-16T12:38:14;13.70;99.90
43043;DHT22;28667;50.758;6.096;2024-02-16T12:40:43;13.60;99.90
43043;DHT22;28667;50.758;6.096;2024-02-16T12:43:08;13.60;99.90
43043;DHT22;28667;50.758;6.096;2024-02-16T12:45:37;13.60;99.90
43043;DHT22;28667;50.758;6.096;2024-02-16T12:48:03;13.50;99.90
43043;DHT22;28667;50.758;6.096;2024-02-16T12:50:30;13.50;99.90
43043;DHT22;28667;50.758;6.096;2024-02-16T12:52:56;13.50;99.90
43043;DHT22;28667;50.758;6.096;2024-02-16T12:55:23;13.40;99.90
43043;DHT22;28667;50.758;6.096;2024-02-16T12:57:49;13.50;99.90
43043;DHT22;28667;50.758;6.096;2024-02-16T13:00:16;13.40;99.90
43043;DHT22;28667;50.758;6.096;2024-02-16T13:02:42;13.40;99.90
43043;DHT22;28667;50.758;6.096;2024-02-16T13:05:07;13.40;99.90
43043;DHT22;28667;50.758;6.096;2024-02-16T13:07:34;13.40;99.90
43043;DHT22;28667;50.758;6.096;2024-02-16T13:09:59;13.30;99.90
43043;DHT22;28667;50.758;6.096;2024-02-16T13:12:25;13.30;99.90
43043;DHT22;28667;50.758;6.096;2024-02-16T13:14:51;13.30;99.90
43043;DHT22;28667;50.758;6.096;2024-02-16T13:17:17;13.20;99.90
43043;DHT22;28667;50.758;6.096;2024-02-16T13:19:43;13.20;99.90
43043;DHT22;28667;50.758;6.096;2024-02-16T13:22:08;13.20;99.90
43043;DHT22;28667;50.758;6.096;2024-02-16T13:24:34;13.20;99.90
43043;DHT22;28667;50.758;6.096;2024-02-16T13:27:00;13.20;99.90
43043;DHT22;28667;50.758;6.096;2024-02-16T13:29:27;13.20;99.90
43043;DHT22;28667;50.758;6.096;2024-02-16T13:31:53;13.20;99.90
43043;DHT22;28667;50.758;6.096;2024-02-16T13:34:19;13.20;99.90
43043;DHT22;28667;50.758;6.096;2024-02-16T13:36:44;13.20;99.90
43043;DHT22;28667;50.758;6.096;2024-02-16T13:39:10;13.10;99.90
43043;DHT22;28667;50.758;6.096;2024-02-16T13:41:37;13.10;99.90
43043;DHT22;28667;50.758;6.096;2024-02-16T13:44:03;13.10;99.90
43043;DHT22;28667;50.758;6.096;2024-02-16T13:46:29;13.00;99.90
43043;DHT22;28667;50.758;6.096;2024-02-16T13:48:55;13.00;99.90
43043;DHT22;28667;50.758;6.096;2024-02-16T13:51:21;13.00;99.90
43043;DHT22;28667;50.758;6.096;2024-02-16T13:53:47;13.00;99.90
43043;DHT22;28667;50.758;6.096;2024-02-16T13:56:13;12.90;99.90
43043;DHT22;28667;50.758;6.096;2024-02-16T13:58:39;12.90;99.90
43043;DHT22;28667;50.758;6.096;2024-02-16T14:01:05;12.80;99.90
43043;DHT22;28667;50.758;6.096;2024-02-16T14:03:31;12.80;99.90
43043;DHT22;28667;50.758;6.096;2024-02-16T14:05:58;12.80;99.90
43043;DHT22;28667;50.758;6.096;2024-02-16T14:08:24;12.80;99.90
43043;DHT22;28667;50.758;6.096;2024-02-16T14:10:50;12.80;99.90
43043;DHT22;28667;50.758;6.096;2024-02-16T14:13:15;12.80;99.90
43043;DHT22;28667;50.758;6.096;2024-02-16T14:15:41;12.80;99.90
43043;DHT22;28667;50.758;6.096;2024-02-16T14:18:08;12.80;99.90
43043;DHT22;28667;50.758;6.096;2024-02-16T14:20:34;12.80;99.90
43043;DHT22;28667;50.758;6.096;2024-02-16T14:23:00;12.70;99.90
43043;DHT22;28667;50.758;6.096;2024-02-16T14:25:28;12.70;99.90
43043;DHT22;28667;50.758;6.096;2024-02-16T14:27:54;12.70;99.90
43043;DHT22;28667;50.758;6.096;2024-02-16T14:30:20;12.70;99.90
43043;DHT22;28667;50.758;6.096;2024-02-16T14:32:46;12.70;99.90
43043;DHT22;28667;50.758;6.096;2024-02-16T14:35:12;12.70;99.90
43043;DHT22;28667;50.758;6.096;2024-02-16T14:37:38;12.70;99.90
43043;DHT22;28667;50.758;6.096;2024-02-16T14:40:05;12.60;99.90
43043;DHT22;28667;50.758;6.096;2024-02-16T14:42:35;12.60;99.90
43043;DHT22;28667;50.758;6.096;2024-02-16T14:45:01;12.60;99.90
43043;DHT22;28667;50.758;6.096;2024-02-16T14:47:28;12.60;99.90
43043;DHT22;28667;50.758;6.096;2024-02-16T14:49:54;12.60;99.90
43043;DHT22;28667;50.758;6.096;2024-02-16T14:52:20;12.60;99.90
43043;DHT22;28667;50.758;6.096;2024-02-16T14:54:46;12.60;99.90
43043;DHT22;28667;50.758;6.096;2024-02-16T14:57:12;12.60;99.90
43043;DHT22;28667;50.758;6.096;2024-02-16T14:59:37;12.50;99.90
43043;DHT22;28667;50.758;6.096;2024-02-16T15:02:03;12.50;99.90
43043;DHT22;28667;50.758;6.096;2024-02-16T15:04:29;12.50;99.90
43043;DHT22;28667;50.758;6.096;2024-02-16T15:06:56;12.50;99.90
43043;DHT22;28667;50.758;6.096;2024-02-16T15:09:22;12.50;99.90
43043;DHT22;28667;50.758;6.096;2024-02-16T15:11:48;12.40;99.90
43043;DHT22;28667;50.758;6.096;2024-02-16T15:14:13;12.40;99.90
43043;DHT22;28667;50.758;6.096;2024-02-16T15:16:39;12.50;99.90
43043;DHT22;28667;50.758;6.096;2024-02-16T15:19:05;12.40;99.90
43043;DHT22;28667;50.758;6.096;2024-02-16T15:21:31;12.40;99.90
43043;DHT22;28667;50.758;6.096;2024-02-16T15:23:56;12.40;99.90
43043;DHT22;28667;50.758;6.096;2024-02-16T15:26:22;12.40;99.90
43043;DHT22;28667;50.758;6.096;2024-02-16T15:28:48;12.40;99.90
43043;DHT22;28667;50.758;6.096;2024-02-16T15:31:13;12.30;99.90